Time;durP1;ratioP1;P1;durP2;ratioP2;P2;SDS_P1;SDS_P2;PMS_P1;PMS_P2;Temp;Humidity;BMP_temperature;BMP_pressure;BME280_temperature;BME280_humidity;BME280_pressure;Samples;Min_cycle;Max_cycle;Signal;HPM_P1;HPM_P2
2022/06/14 00:01:28;;;;;;;;;;;12.90;99.90;;;;;;8400327;28;19928;-76
2022/06/14 00:05:29;;;;;;;;;;;12.80;99.90;;;;;;8390332;28;19959;-76
2022/06/14 00:09:31;;;;;;;;;;;12.80;99.90;;;;;;8385971;28;19929;-76
2022/06/14 00:13:33;;;;;;;;;;;12.70;99.90;;;;;;8408738;28;19933;-76
2022/06/14 00:22:17;;;;;;;;;;;12.60;99.90;;;;;;8384623;28;19970;-76
2022/06/14 00:26:19;;;;;;;;;;;12.60;99.90;;;;;;8391833;28;19940;-76
2022/06/14 00:30:22;;;;;;;;;;;12.50;99.90;;;;;;8393980;28;19925;-76
2022/06/14 00:34:23;;;;;;;;;;;12.50;99.90;;;;;;8394241;28;19932;-76
2022/06/14 00:38:25;;;;;;;;;;;12.40;99.90;;;;;;8397829;28;20257;-76
2022/06/14 00:42:27;;;;;;;;;;;12.40;99.90;;;;;;8391334;28;19925;-76
2022/06/14 00:46:33;;;;;;;;;;;12.30;99.90;;;;;;8402365;28;19924;-76
2022/06/14 00:50:39;;;;;;;;;;;12.30;99.90;;;;;;8396375;28;20412;-77
2022/06/14 00:54:41;;;;;;;;;;;12.20;99.90;;;;;;8392747;28;19924;-76
2022/06/14 01:03:51;;;;;;;;;;;12.20;99.90;;;;;;8390080;28;20280;-76
2022/06/14 01:07:56;;;;;;;;;;;12.10;99.90;;;;;;8386147;28;19924;-76
2022/06/14 01:12:05;;;;;;;;;;;12.10;99.90;;;;;;8393224;28;19928;-76
2022/06/14 01:16:09;;;;;;;;;;;12.10;99.90;;;;;;8396433;28;19929;-76
2022/06/14 01:20:13;;;;;;;;;;;12.00;99.90;;;;;;8395915;28;20569;-76
2022/06/14 01:24:14;;;;;;;;;;;12.00;99.90;;;;;;8388588;28;19928;-76
2022/06/14 01:28:17;;;;;;;;;;;11.90;99.90;;;;;;8393284;28;19931;-76
2022/06/14 01:32:19;;;;;;;;;;;11.90;99.90;;;;;;8393306;28;19929;-76
2022/06/14 01:36:27;;;;;;;;;;;11.80;99.90;;;;;;8387148;28;19979;-76
2022/06/14 01:40:35;;;;;;;;;;;11.80;99.90;;;;;;8401799;28;20297;-76
2022/06/14 01:44:39;;;;;;;;;;;11.70;99.90;;;;;;8399745;28;19924;-76
2022/06/14 01:51:50;;;;;;;;;;;11.70;99.90;;;;;;8389575;28;20311;-76
2022/06/14 01:53:30;;;;;;;;;;;11.70;99.90;;;;;;8394942;28;19924;-76
2022/06/14 01:57:37;;;;;;;;;;;11.60;99.90;;;;;;8385671;28;20320;-76
2022/06/14 02:01:44;;;;;;;;;;;11.60;99.90;;;;;;8427541;28;19968;-76
2022/06/14 02:05:50;;;;;;;;;;;11.60;99.90;;;;;;8394393;28;19924;-76
2022/06/14 02:09:59;;;;;;;;;;;11.50;99.90;;;;;;8389668;28;19925;-76
2022/06/14 02:14:08;;;;;;;;;;;11.50;99.90;;;;;;8391719;28;20288;-76
2022/06/14 02:18:31;;;;;;;;;;;11.40;99.90;;;;;;8390675;28;19955;-76
2022/06/14 02:22:39;;;;;;;;;;;11.40;99.90;;;;;;8388664;28;19931;-76
2022/06/14 02:26:44;;;;;;;;;;;11.30;99.90;;;;;;8396134;28;20300;-76
2022/06/14 02:30:56;;;;;;;;;;;11.20;99.90;;;;;;8395233;28;19931;-76
2022/06/14 02:35:05;;;;;;;;;;;11.20;99.90;;;;;;8393457;28;19933;-76
2022/06/14 02:39:09;;;;;;;;;;;11.10;99.90;;;;;;8391663;28;19933;-76
2022/06/14 02:43:17;;;;;;;;;;;11.10;99.90;;;;;;8395615;28;20256;-76
2022/06/14 02:47:28;;;;;;;;;;;11.00;99.90;;;;;;8386778;28;19924;-76
2022/06/14 02:51:34;;;;;;;;;;;11.00;99.90;;;;;;8389404;28;19944;-76
2022/06/14 02:55:43;;;;;;;;;;;11.00;99.90;;;;;;8394913;28;19932;-76
2022/06/14 02:59:48;;;;;;;;;;;10.90;99.90;;;;;;8396977;28;19970;-76
2022/06/14 03:04:06;;;;;;;;;;;10.90;99.90;;;;;;8393835;28;20023;-76
2022/06/14 03:13:18;;;;;;;;;;;10.80;99.90;;;;;;8398946;28;19962;-75
2022/06/14 03:17:27;;;;;;;;;;;10.80;99.90;;;;;;8392291;28;19928;-76
2022/06/14 03:21:35;;;;;;;;;;;10.70;99.90;;;;;;8385984;28;19928;-76
2022/06/14 03:25:40;;;;;;;;;;;10.70;99.90;;;;;;8388962;28;20001;-76
2022/06/14 03:29:41;;;;;;;;;;;10.70;99.90;;;;;;8381380;28;19924;-76
2022/06/14 03:33:56;;;;;;;;;;;10.70;99.90;;;;;;8390995;28;19925;-76
2022/06/14 03:38:01;;;;;;;;;;;10.60;99.90;;;;;;8397468;28;19936;-75
2022/06/14 03:42:03;;;;;;;;;;;10.50;99.90;;;;;;8387988;28;19924;-76
2022/06/14 03:46:12;;;;;;;;;;;10.40;99.90;;;;;;8380834;28;22337;-75
2022/06/14 03:50:43;;;;;;;;;;;10.40;99.90;;;;;;8381128;28;20019;-75
2022/06/14 03:54:45;;;;;;;;;;;10.40;99.90;;;;;;8363173;28;19933;-75
2022/06/14 03:58:53;;;;;;;;;;;10.40;99.90;;;;;;8381638;28;19924;-75
2022/06/14 04:03:00;;;;;;;;;;;10.40;99.90;;;;;;8376214;28;20277;-75
2022/06/14 04:07:20;;;;;;;;;;;10.40;99.90;;;;;;8379827;28;19925;-75
2022/06/14 04:11:34;;;;;;;;;;;10.40;99.90;;;;;;8387361;28;19924;-76
2022/06/14 04:15:44;;;;;;;;;;;10.30;99.90;;;;;;8410550;28;19944;-75
2022/06/14 04:19:55;;;;;;;;;;;10.30;99.90;;;;;;8391095;28;20342;-76
2022/06/14 04:23:57;;;;;;;;;;;10.40;99.90;;;;;;8390764;28;19928;-75
2022/06/14 04:28:28;;;;;;;;;;;10.40;99.90;;;;;;8387671;28;19932;-75
2022/06/14 04:32:30;;;;;;;;;;;10.40;99.90;;;;;;8390407;28;19967;-75
2022/06/14 04:36:34;;;;;;;;;;;10.50;99.90;;;;;;8393824;28;19935;-75
2022/06/14 04:40:40;;;;;;;;;;;10.60;99.90;;;;;;8408571;28;19924;-76
2022/06/14 04:44:49;;;;;;;;;;;10.70;99.90;;;;;;8398632;28;19931;-75
2022/06/14 04:48:57;;;;;;;;;;;10.70;99.90;;;;;;8390663;28;19924;-75
2022/06/14 04:53:02;;;;;;;;;;;10.80;99.90;;;;;;8387121;28;19924;-75
2022/06/14 04:57:14;;;;;;;;;;;10.80;99.90;;;;;;8387024;28;19928;-76
2022/06/14 05:01:25;;;;;;;;;;;10.90;99.90;;;;;;8383785;28;19924;-76
2022/06/14 05:05:31;;;;;;;;;;;11.00;99.90;;;;;;8386249;28;19925;-76
2022/06/14 05:09:36;;;;;;;;;;;11.10;99.90;;;;;;8391078;28;19924;-76
2022/06/14 05:13:51;;;;;;;;;;;11.20;99.90;;;;;;8398352;28;19932;-76
2022/06/14 05:18:01;;;;;;;;;;;11.40;99.90;;;;;;8390926;28;19984;-75
2022/06/14 05:22:08;;;;;;;;;;;11.50;99.90;;;;;;8405448;28;19925;-76
2022/06/14 05:26:13;;;;;;;;;;;11.70;99.90;;;;;;8393971;28;19944;-76
2022/06/14 05:30:24;;;;;;;;;;;11.80;99.90;;;;;;8412617;28;19931;-76
2022/06/14 05:34:45;;;;;;;;;;;11.90;99.90;;;;;;8396127;28;19925;-76
2022/06/14 05:38:46;;;;;;;;;;;12.00;99.90;;;;;;8391018;28;19925;-76
2022/06/14 05:42:51;;;;;;;;;;;12.20;99.90;;;;;;8394648;28;19935;-76
2022/06/14 05:46:53;;;;;;;;;;;12.30;99.90;;;;;;8366555;28;20341;-76
2022/06/14 05:50:56;;;;;;;;;;;12.40;99.90;;;;;;8374365;28;19925;-76
2022/06/14 05:55:07;;;;;;;;;;;12.60;99.90;;;;;;8355308;28;19931;-76
2022/06/14 05:59:14;;;;;;;;;;;12.70;99.90;;;;;;8338276;28;19924;-76
2022/06/14 06:03:44;;;;;;;;;;;12.90;99.90;;;;;;8369669;28;19987;-76
2022/06/14 06:08:09;;;;;;;;;;;13.10;99.90;;;;;;8366554;28;19925;-76
2022/06/14 06:12:14;;;;;;;;;;;13.20;99.90;;;;;;8355659;28;19925;-76
2022/06/14 06:16:19;;;;;;;;;;;13.30;99.90;;;;;;8360397;28;19924;-76
2022/06/14 06:20:24;;;;;;;;;;;13.40;99.90;;;;;;8368438;28;19924;-76
2022/06/14 06:24:38;;;;;;;;;;;13.50;99.90;;;;;;8343533;28;19932;-76
2022/06/14 06:28:44;;;;;;;;;;;13.60;99.90;;;;;;8361624;28;20304;-76
2022/06/14 06:32:46;;;;;;;;;;;13.70;99.90;;;;;;8357251;28;20296;-76
2022/06/14 06:37:01;;;;;;;;;;;13.80;99.90;;;;;;8347258;28;19936;-76
2022/06/14 06:45:39;;;;;;;;;;;14.00;99.90;;;;;;8378055;28;19945;-76
2022/06/14 06:49:46;;;;;;;;;;;14.10;99.90;;;;;;8392746;28;19932;-76
2022/06/14 06:53:52;;;;;;;;;;;14.20;99.90;;;;;;8392097;28;19969;-76
2022/06/14 06:57:55;;;;;;;;;;;14.30;99.90;;;;;;8392386;28;20380;-76
2022/06/14 07:01:59;;;;;;;;;;;14.40;99.90;;;;;;8395055;28;19931;-76
2022/06/14 07:06:03;;;;;;;;;;;14.60;99.90;;;;;;8398876;28;19928;-76
2022/06/14 07:10:10;;;;;;;;;;;14.80;99.90;;;;;;8385910;28;20283;-76
2022/06/14 07:14:16;;;;;;;;;;;14.90;99.90;;;;;;8391066;28;19935;-76
2022/06/14 07:18:21;;;;;;;;;;;14.90;99.90;;;;;;8398051;28;19940;-76
2022/06/14 07:22:25;;;;;;;;;;;15.00;99.90;;;;;;8391073;28;19940;-76
2022/06/14 07:26:27;;;;;;;;;;;15.10;99.90;;;;;;8403205;28;20617;-76
2022/06/14 07:30:35;;;;;;;;;;;15.20;99.90;;;;;;8396964;28;20066;-76
2022/06/14 07:34:37;;;;;;;;;;;15.30;99.90;;;;;;8399036;28;19932;-76
2022/06/14 07:38:50;;;;;;;;;;;15.40;99.90;;;;;;8401307;28;19924;-76
2022/06/14 07:42:58;;;;;;;;;;;15.40;99.90;;;;;;8397097;28;19928;-76
2022/06/14 07:47:03;;;;;;;;;;;15.50;99.90;;;;;;8390666;28;20669;-76
2022/06/14 07:51:11;;;;;;;;;;;15.70;99.90;;;;;;8391034;28;19924;-77
2022/06/14 07:55:17;;;;;;;;;;;15.80;99.90;;;;;;8392740;28;19954;-76
2022/06/14 07:59:24;;;;;;;;;;;15.80;99.90;;;;;;8398851;28;19924;-76
2022/06/14 08:03:25;;;;;;;;;;;15.80;99.90;;;;;;8389086;28;19947;-77
2022/06/14 08:07:27;;;;;;;;;;;15.90;99.90;;;;;;8393572;28;19928;-77
2022/06/14 08:11:36;;;;;;;;;;;15.90;99.90;;;;;;8391912;28;19929;-77
2022/06/14 08:15:40;;;;;;;;;;;15.90;99.90;;;;;;8374564;28;19940;-77
2022/06/14 08:19:44;;;;;;;;;;;15.90;99.90;;;;;;8363223;28;19937;-77
2022/06/14 08:23:49;;;;;;;;;;;15.90;99.90;;;;;;8371072;28;19928;-76
2022/06/14 08:28:06;;;;;;;;;;;16.00;99.90;;;;;;8372750;28;21214;-76
2022/06/14 08:32:11;;;;;;;;;;;16.10;99.90;;;;;;8376590;28;19924;-77
2022/06/14 08:36:18;;;;;;;;;;;16.20;99.90;;;;;;8394622;28;20272;-77
2022/06/14 08:40:19;;;;;;;;;;;16.20;99.90;;;;;;8366030;28;19940;-77
2022/06/14 08:44:34;;;;;;;;;;;16.30;99.90;;;;;;8367208;28;19931;-77
2022/06/14 08:48:41;;;;;;;;;;;16.30;99.90;;;;;;8367086;28;19929;-77
2022/06/14 08:52:45;;;;;;;;;;;16.30;99.90;;;;;;8401646;28;19989;-77
2022/06/14 08:56:56;;;;;;;;;;;16.20;99.90;;;;;;8368330;28;19936;-76
2022/06/14 09:01:04;;;;;;;;;;;16.30;99.90;;;;;;8367460;28;20152;-76
2022/06/14 09:05:18;;;;;;;;;;;16.40;99.90;;;;;;8369301;28;20253;-77
2022/06/14 09:09:38;;;;;;;;;;;16.60;99.90;;;;;;8365249;28;19939;-76
2022/06/14 09:13:43;;;;;;;;;;;16.70;99.90;;;;;;8378197;28;19933;-77
2022/06/14 09:17:44;;;;;;;;;;;16.90;99.90;;;;;;8368126;28;19932;-76
2022/06/14 09:21:54;;;;;;;;;;;17.00;99.90;;;;;;8367943;28;20075;-76
2022/06/14 09:26:05;;;;;;;;;;;17.10;99.90;;;;;;8364445;28;20015;-76
2022/06/14 09:30:16;;;;;;;;;;;17.30;99.90;;;;;;8371412;28;20023;-76
2022/06/14 09:34:18;;;;;;;;;;;17.30;99.90;;;;;;8363018;28;19925;-76
2022/06/14 09:38:19;;;;;;;;;;;17.40;99.90;;;;;;8380555;28;24478;-76
2022/06/14 09:42:29;;;;;;;;;;;17.50;99.90;;;;;;8369937;28;19948;-76
2022/06/14 09:46:40;;;;;;;;;;;17.60;99.90;;;;;;8360316;28;19940;-75
2022/06/14 09:51:16;;;;;;;;;;;17.80;99.90;;;;;;8364989;28;19929;-76
2022/06/14 09:55:17;;;;;;;;;;;17.80;99.90;;;;;;8366973;28;20352;-75
2022/06/14 09:59:22;;;;;;;;;;;17.90;99.90;;;;;;8365812;28;19932;-76
2022/06/14 10:03:24;;;;;;;;;;;17.80;99.90;;;;;;8363215;28;19932;-75
2022/06/14 10:07:38;;;;;;;;;;;17.80;99.90;;;;;;8374300;28;19928;-76
2022/06/14 10:11:58;;;;;;;;;;;17.80;99.90;;;;;;8367330;28;20002;-76
2022/06/14 10:16:06;;;;;;;;;;;17.80;99.90;;;;;;8379847;28;19932;-76
2022/06/14 10:24:51;;;;;;;;;;;18.20;99.90;;;;;;8361539;28;19929;-75
2022/06/14 10:29:12;;;;;;;;;;;18.30;99.90;;;;;;8364474;28;19925;-75
2022/06/14 10:33:32;;;;;;;;;;;18.40;99.90;;;;;;8363464;28;20388;-76
2022/06/14 10:37:34;;;;;;;;;;;18.50;99.90;;;;;;8366745;28;19924;-76
2022/06/14 10:41:38;;;;;;;;;;;18.60;99.90;;;;;;8383650;28;19935;-76
2022/06/14 10:45:46;;;;;;;;;;;18.60;99.90;;;;;;8361625;28;19936;-76
2022/06/14 10:49:59;;;;;;;;;;;18.70;99.90;;;;;;8392805;28;19924;-76
2022/06/14 10:54:11;;;;;;;;;;;18.70;99.90;;;;;;8367265;28;19955;-76
2022/06/14 10:58:28;;;;;;;;;;;18.70;99.90;;;;;;8357811;28;20163;-75
2022/06/14 11:02:41;;;;;;;;;;;18.70;99.90;;;;;;8368040;28;19936;-75
2022/06/14 11:06:52;;;;;;;;;;;18.60;99.90;;;;;;8358681;28;19935;-76
2022/06/14 11:11:05;;;;;;;;;;;18.50;99.90;;;;;;8360380;28;19924;-75
2022/06/14 11:15:24;;;;;;;;;;;18.50;99.90;;;;;;8378077;28;19936;-75
2022/06/14 11:19:48;;;;;;;;;;;18.50;99.90;;;;;;8366955;28;19940;-76
2022/06/14 11:24:11;;;;;;;;;;;18.50;99.90;;;;;;8373373;28;19948;-75
2022/06/14 11:28:22;;;;;;;;;;;18.40;99.90;;;;;;8361966;28;19931;-75
2022/06/14 11:32:33;;;;;;;;;;;18.40;99.90;;;;;;8377254;28;20002;-76
2022/06/14 11:36:53;;;;;;;;;;;18.40;99.90;;;;;;8358248;28;19931;-76
2022/06/14 11:40:59;;;;;;;;;;;18.40;99.90;;;;;;8364669;28;20293;-76
2022/06/14 11:45:04;;;;;;;;;;;18.40;99.90;;;;;;8360740;28;19925;-76
2022/06/14 11:49:24;;;;;;;;;;;18.40;99.90;;;;;;8376785;28;19928;-76
2022/06/14 11:53:45;;;;;;;;;;;18.50;99.90;;;;;;8359191;28;20558;-77
2022/06/14 11:57:53;;;;;;;;;;;18.60;99.90;;;;;;8363322;28;19951;-76
2022/06/14 12:02:27;;;;;;;;;;;18.70;99.90;;;;;;8395811;28;20175;-76
2022/06/14 12:06:41;;;;;;;;;;;18.70;99.90;;;;;;8345624;28;19994;-76
2022/06/14 12:10:54;;;;;;;;;;;18.80;99.90;;;;;;8360504;28;20594;-76
2022/06/14 12:14:59;;;;;;;;;;;18.90;99.90;;;;;;8359442;28;19925;-76
2022/06/14 12:19:01;;;;;;;;;;;19.00;99.90;;;;;;8371470;28;19948;-76
2022/06/14 12:23:12;;;;;;;;;;;19.10;99.90;;;;;;8383015;28;20032;-76
2022/06/14 12:27:18;;;;;;;;;;;19.30;99.90;;;;;;8365259;28;20281;-76
2022/06/14 12:31:26;;;;;;;;;;;19.30;99.90;;;;;;8369569;28;19971;-76
2022/06/14 12:35:30;;;;;;;;;;;19.30;99.90;;;;;;8363763;28;19925;-76
2022/06/14 12:40:03;;;;;;;;;;;19.40;99.90;;;;;;8401442;27;19936;-77
2022/06/14 12:44:18;;;;;;;;;;;19.40;99.90;;;;;;8378721;28;19924;-75
2022/06/14 12:48:39;;;;;;;;;;;19.40;99.90;;;;;;8376848;28;20063;-75
2022/06/14 12:52:47;;;;;;;;;;;19.40;99.90;;;;;;8363206;28;19924;-76
2022/06/14 12:57:07;;;;;;;;;;;19.40;99.90;;;;;;8367002;28;19928;-76
2022/06/14 13:01:09;;;;;;;;;;;19.40;99.90;;;;;;8363277;28;20337;-76
2022/06/14 13:05:11;;;;;;;;;;;19.50;99.90;;;;;;8387238;28;19928;-76
2022/06/14 13:09:31;;;;;;;;;;;19.70;99.90;;;;;;8371416;28;20380;-76
2022/06/14 13:13:48;;;;;;;;;;;19.80;99.90;;;;;;8367655;28;19951;-76
2022/06/14 13:18:04;;;;;;;;;;;20.00;99.90;;;;;;8383657;28;19924;-76
2022/06/14 13:22:25;;;;;;;;;;;20.20;99.90;;;;;;8376641;28;19933;-76
2022/06/14 13:26:26;;;;;;;;;;;20.30;99.90;;;;;;8361467;28;19929;-76
2022/06/14 13:30:47;;;;;;;;;;;20.30;99.90;;;;;;8365009;28;20929;-76
2022/06/14 13:35:08;;;;;;;;;;;20.20;99.90;;;;;;8366064;28;20281;-76
2022/06/14 13:39:33;;;;;;;;;;;20.10;99.90;;;;;;8358515;28;19931;-76
2022/06/14 13:43:38;;;;;;;;;;;20.00;99.90;;;;;;8391997;27;19924;-76
2022/06/14 13:47:53;;;;;;;;;;;19.90;99.90;;;;;;8383064;28;19928;-76
2022/06/14 13:51:57;;;;;;;;;;;19.80;99.90;;;;;;8376643;28;19925;-75
2022/06/14 13:56:04;;;;;;;;;;;19.80;99.90;;;;;;8363093;28;20325;-76
2022/06/14 14:00:13;;;;;;;;;;;19.90;99.90;;;;;;8364980;28;20384;-76
2022/06/14 14:04:35;;;;;;;;;;;20.10;99.90;;;;;;8369071;28;20296;-76
2022/06/14 14:08:43;;;;;;;;;;;20.20;99.90;;;;;;8371405;28;19929;-76
2022/06/14 14:12:49;;;;;;;;;;;20.30;99.90;;;;;;8399110;27;19932;-76
2022/06/14 14:17:05;;;;;;;;;;;20.30;99.90;;;;;;8396473;27;20266;-76
2022/06/14 14:21:14;;;;;;;;;;;20.50;99.90;;;;;;8365102;28;20532;-76
2022/06/14 14:25:21;;;;;;;;;;;20.60;99.90;;;;;;8361984;28;19947;-76
2022/06/14 14:29:32;;;;;;;;;;;20.70;99.90;;;;;;8367355;28;20295;-77
2022/06/14 14:33:41;;;;;;;;;;;20.90;99.90;;;;;;8362289;28;19948;-76
2022/06/14 14:37:47;;;;;;;;;;;21.00;99.90;;;;;;8360772;28;20384;-76
2022/06/14 14:42:03;;;;;;;;;;;21.00;99.90;;;;;;8364197;28;20030;-76
2022/06/14 14:46:10;;;;;;;;;;;20.90;99.90;;;;;;8385385;28;19939;-76
2022/06/14 14:50:31;;;;;;;;;;;20.90;99.90;;;;;;8363861;28;19928;-76
2022/06/14 14:54:43;;;;;;;;;;;21.00;99.90;;;;;;8371703;28;19936;-76
2022/06/14 14:58:54;;;;;;;;;;;21.20;99.90;;;;;;8402509;28;19928;-76
2022/06/14 15:07:24;;;;;;;;;;;21.40;99.90;;;;;;8362666;28;20277;-76
2022/06/14 15:11:27;;;;;;;;;;;21.50;99.90;;;;;;8393877;27;20299;-76
2022/06/14 15:15:30;;;;;;;;;;;21.50;99.90;;;;;;8373825;28;19977;-76
2022/06/14 15:23:56;;;;;;;;;;;21.50;99.90;;;;;;8362826;28;19924;-76
2022/06/14 15:28:10;;;;;;;;;;;21.70;99.90;;;;;;8362476;28;20259;-76
2022/06/14 15:32:24;;;;;;;;;;;21.80;99.90;;;;;;8394977;28;19924;-76
2022/06/14 15:36:29;;;;;;;;;;;21.80;99.90;;;;;;8360329;28;20033;-77
2022/06/14 15:40:31;;;;;;;;;;;21.90;99.90;;;;;;8370720;28;19935;-76
2022/06/14 15:44:33;;;;;;;;;;;21.90;99.90;;;;;;8374019;28;20376;-75
2022/06/14 15:48:36;;;;;;;;;;;21.90;99.90;;;;;;8359975;28;19924;-75
2022/06/14 15:52:39;;;;;;;;;;;22.00;99.90;;;;;;8354592;28;19929;-74
2022/06/14 15:56:50;;;;;;;;;;;22.20;99.90;;;;;;8355786;28;20420;-76
2022/06/14 16:00:56;;;;;;;;;;;22.30;99.90;;;;;;8359966;28;19936;-75
2022/06/14 16:04:59;;;;;;;;;;;22.50;99.90;;;;;;8360603;28;19995;-75
2022/06/14 16:09:05;;;;;;;;;;;23.00;99.90;;;;;;8354321;28;19929;-75
2022/06/14 16:13:09;;;;;;;;;;;23.40;99.90;;;;;;8351410;28;19940;-76
2022/06/14 16:17:17;;;;;;;;;;;23.80;99.90;;;;;;8360441;28;20023;-75
2022/06/14 16:21:39;;;;;;;;;;;24.20;99.90;;;;;;8354653;28;19932;-75
2022/06/14 16:26:09;;;;;;;;;;;24.70;99.90;;;;;;8353623;28;19932;-76
2022/06/14 16:30:40;;;;;;;;;;;25.00;99.90;;;;;;8356744;28;19951;-76
2022/06/14 16:34:48;;;;;;;;;;;25.50;99.90;;;;;;8366009;28;21547;-75
2022/06/14 16:38:49;;;;;;;;;;;25.80;99.90;;;;;;8361815;28;19925;-76
2022/06/14 16:42:54;;;;;;;;;;;26.00;99.90;;;;;;8386575;28;20353;-75
2022/06/14 16:47:00;;;;;;;;;;;26.10;99.90;;;;;;8354027;28;20005;-75
2022/06/14 16:51:04;;;;;;;;;;;26.10;99.90;;;;;;8357369;28;19940;-76
2022/06/14 16:55:24;;;;;;;;;;;26.10;99.90;;;;;;8365026;28;20691;-76
2022/06/14 16:59:44;;;;;;;;;;;26.30;99.90;;;;;;8358840;28;19925;-76
2022/06/14 17:03:50;;;;;;;;;;;26.40;99.90;;;;;;8376951;28;19932;-76
2022/06/14 17:08:00;;;;;;;;;;;26.60;99.90;;;;;;8358810;28;20377;-76
2022/06/14 17:12:07;;;;;;;;;;;26.70;99.90;;;;;;8357249;28;19931;-76
2022/06/14 17:16:13;;;;;;;;;;;26.80;99.90;;;;;;8360132;28;19932;-76
2022/06/14 17:20:27;;;;;;;;;;;26.80;99.90;;;;;;8355384;28;20024;-76
2022/06/14 17:24:36;;;;;;;;;;;26.80;99.90;;;;;;8392346;27;19956;-76
2022/06/14 17:32:59;;;;;;;;;;;26.50;99.90;;;;;;8354852;28;20035;-76
2022/06/14 17:37:07;;;;;;;;;;;26.20;99.90;;;;;;8361461;28;20024;-76
2022/06/14 17:41:12;;;;;;;;;;;25.90;99.90;;;;;;8356482;28;19932;-75
2022/06/14 17:45:20;;;;;;;;;;;25.50;99.90;;;;;;8366316;28;19931;-76
2022/06/14 17:49:35;;;;;;;;;;;25.10;99.90;;;;;;8358184;28;19925;-76
2022/06/14 17:53:47;;;;;;;;;;;24.80;99.90;;;;;;8359936;28;19940;-76
2022/06/14 17:57:49;;;;;;;;;;;24.50;99.90;;;;;;8358294;28;19932;-76
2022/06/14 18:02:02;;;;;;;;;;;24.30;99.90;;;;;;8358104;28;19978;-76
2022/06/14 18:06:09;;;;;;;;;;;24.20;99.90;;;;;;8363376;28;20402;-76
2022/06/14 18:10:20;;;;;;;;;;;24.00;99.90;;;;;;8395279;28;20379;-76
2022/06/14 18:14:30;;;;;;;;;;;23.80;99.90;;;;;;8354260;28;20387;-76
2022/06/14 18:18:34;;;;;;;;;;;23.70;99.90;;;;;;8352561;28;19929;-75
2022/06/14 18:22:43;;;;;;;;;;;23.60;99.90;;;;;;8355202;28;20292;-76
2022/06/14 18:26:49;;;;;;;;;;;23.50;99.90;;;;;;8354280;28;20311;-76
2022/06/14 18:30:52;;;;;;;;;;;23.40;99.90;;;;;;8360276;28;20276;-76
2022/06/14 18:34:55;;;;;;;;;;;23.30;99.90;;;;;;8352283;28;19933;-76
2022/06/14 18:38:57;;;;;;;;;;;23.20;99.90;;;;;;8349117;28;19935;-76
2022/06/14 18:43:04;;;;;;;;;;;23.10;99.90;;;;;;8365519;28;19928;-76
2022/06/14 18:47:24;;;;;;;;;;;23.00;99.90;;;;;;8357694;28;19970;-76
2022/06/14 18:51:28;;;;;;;;;;;22.90;99.90;;;;;;8348564;28;19943;-76
2022/06/14 18:55:38;;;;;;;;;;;22.80;99.90;;;;;;8351962;28;19933;-76
2022/06/14 19:00:08;;;;;;;;;;;22.70;99.90;;;;;;8356802;28;20402;-76
2022/06/14 19:04:31;;;;;;;;;;;22.60;99.90;;;;;;8349941;28;19951;-76
2022/06/14 19:08:51;;;;;;;;;;;22.50;99.90;;;;;;8348755;28;19928;-76
2022/06/14 19:13:07;;;;;;;;;;;22.40;99.90;;;;;;8361570;28;19932;-76
2022/06/14 19:17:28;;;;;;;;;;;22.30;99.90;;;;;;8360872;28;20389;-76
2022/06/14 19:21:47;;;;;;;;;;;22.20;99.90;;;;;;8383208;28;20355;-76
2022/06/14 19:25:57;;;;;;;;;;;22.10;99.90;;;;;;8356027;28;24143;-76
2022/06/14 19:30:01;;;;;;;;;;;22.00;99.90;;;;;;8353139;28;20487;-76
2022/06/14 19:34:05;;;;;;;;;;;21.90;99.90;;;;;;8356859;28;19928;-76
2022/06/14 19:38:08;;;;;;;;;;;21.80;99.90;;;;;;8366770;28;19936;-76
2022/06/14 19:42:09;;;;;;;;;;;21.70;99.90;;;;;;8348564;28;19939;-76
2022/06/14 19:46:11;;;;;;;;;;;21.60;99.90;;;;;;8356484;28;19982;-76
2022/06/14 19:50:30;;;;;;;;;;;21.50;99.90;;;;;;8375804;28;20202;-76
2022/06/14 19:54:33;;;;;;;;;;;21.30;99.90;;;;;;8357802;28;20318;-76
2022/06/14 19:58:40;;;;;;;;;;;21.20;99.90;;;;;;8358193;28;19925;-76
2022/06/14 20:02:42;;;;;;;;;;;21.10;99.90;;;;;;8360022;28;19925;-76
2022/06/14 20:06:54;;;;;;;;;;;20.90;99.90;;;;;;8357865;28;19924;-76
2022/06/14 20:10:56;;;;;;;;;;;20.80;99.90;;;;;;8352775;28;19975;-76
2022/06/14 20:15:02;;;;;;;;;;;20.70;99.90;;;;;;8354627;28;20380;-75
2022/06/14 20:19:19;;;;;;;;;;;20.60;99.90;;;;;;8355426;28;19932;-76
2022/06/14 20:23:23;;;;;;;;;;;20.50;99.90;;;;;;8352379;28;19983;-76
2022/06/14 20:27:24;;;;;;;;;;;20.40;99.90;;;;;;8369990;28;19936;-76
2022/06/14 20:31:27;;;;;;;;;;;20.30;99.90;;;;;;8368564;28;19932;-76
2022/06/14 20:35:36;;;;;;;;;;;20.20;99.90;;;;;;8350370;28;19924;-76
2022/06/14 20:39:38;;;;;;;;;;;20.10;99.90;;;;;;8369939;28;19929;-76
2022/06/14 20:43:50;;;;;;;;;;;20.00;99.90;;;;;;8360240;28;19933;-76
2022/06/14 20:47:52;;;;;;;;;;;19.90;99.90;;;;;;8310776;28;19929;-76
2022/06/14 20:51:54;;;;;;;;;;;19.80;99.90;;;;;;8326287;28;19929;-76
2022/06/14 20:56:04;;;;;;;;;;;19.80;99.90;;;;;;8321588;28;19955;-76
2022/06/14 21:00:07;;;;;;;;;;;19.70;99.90;;;;;;8322623;28;19952;-76
2022/06/14 21:04:09;;;;;;;;;;;19.60;99.90;;;;;;8338008;28;19925;-76
2022/06/14 21:08:13;;;;;;;;;;;19.50;99.90;;;;;;8345997;28;19935;-75
2022/06/14 21:12:16;;;;;;;;;;;19.50;99.90;;;;;;8327597;28;19925;-75
2022/06/14 21:16:29;;;;;;;;;;;19.40;99.90;;;;;;8312685;28;19941;-76
2022/06/14 21:20:33;;;;;;;;;;;19.40;99.90;;;;;;8347437;28;19924;-76
2022/06/14 21:24:36;;;;;;;;;;;19.30;99.90;;;;;;8332636;28;19979;-76
2022/06/14 21:28:38;;;;;;;;;;;19.30;99.90;;;;;;8340722;28;20321;-76
2022/06/14 21:32:51;;;;;;;;;;;19.20;99.90;;;;;;8349647;28;20653;-76
2022/06/14 21:36:54;;;;;;;;;;;19.10;99.90;;;;;;8343958;28;20295;-76
2022/06/14 21:41:05;;;;;;;;;;;19.10;99.90;;;;;;8324654;28;19924;-76
2022/06/14 21:45:06;;;;;;;;;;;19.10;99.90;;;;;;8338909;28;19933;-75
2022/06/14 21:49:08;;;;;;;;;;;19.00;99.90;;;;;;8373130;28;20385;-75
2022/06/14 21:53:13;;;;;;;;;;;18.90;99.90;;;;;;8369458;28;20204;-76
2022/06/14 21:57:24;;;;;;;;;;;18.90;99.90;;;;;;8376840;28;20360;-76
2022/06/14 22:01:26;;;;;;;;;;;18.80;99.90;;;;;;8379779;28;20581;-76
2022/06/14 22:05:28;;;;;;;;;;;18.80;99.90;;;;;;8376170;28;19931;-75
2022/06/14 22:09:29;;;;;;;;;;;18.70;99.90;;;;;;8372661;28;19932;-76
2022/06/14 22:13:39;;;;;;;;;;;18.60;99.90;;;;;;8401192;28;19924;-75
2022/06/14 22:17:40;;;;;;;;;;;18.60;99.90;;;;;;8378333;28;19939;-76
2022/06/14 22:21:42;;;;;;;;;;;18.50;99.90;;;;;;8379392;28;19938;-75
2022/06/14 22:25:44;;;;;;;;;;;18.50;99.90;;;;;;8369481;28;20593;-76
2022/06/14 22:30:01;;;;;;;;;;;18.40;99.90;;;;;;8367534;28;19932;-76
2022/06/14 22:34:02;;;;;;;;;;;18.40;99.90;;;;;;8366040;28;19931;-75
2022/06/14 22:38:04;;;;;;;;;;;18.30;99.90;;;;;;8365257;28;19947;-75
2022/06/14 22:42:06;;;;;;;;;;;18.30;99.90;;;;;;8373230;28;20005;-76
2022/06/14 22:46:11;;;;;;;;;;;18.20;99.90;;;;;;8382997;28;19936;-76
2022/06/14 22:50:13;;;;;;;;;;;18.20;99.90;;;;;;8369277;28;19933;-76
2022/06/14 22:54:15;;;;;;;;;;;18.10;99.90;;;;;;8367625;28;19928;-76
2022/06/14 22:58:17;;;;;;;;;;;18.10;99.90;;;;;;8369225;28;19987;-75
2022/06/14 23:02:18;;;;;;;;;;;18.00;99.90;;;;;;8377006;28;20063;-75
2022/06/14 23:06:20;;;;;;;;;;;18.00;99.90;;;;;;8383706;28;19932;-76
2022/06/14 23:10:22;;;;;;;;;;;17.90;99.90;;;;;;8372621;28;19933;-75
2022/06/14 23:14:23;;;;;;;;;;;17.90;99.90;;;;;;8381548;28;19931;-75
2022/06/14 23:18:25;;;;;;;;;;;17.90;99.90;;;;;;8379076;28;20380;-76
2022/06/14 23:22:27;;;;;;;;;;;17.80;99.90;;;;;;8372623;28;19924;-75
2022/06/14 23:26:29;;;;;;;;;;;17.70;99.90;;;;;;8371960;28;19959;-76
2022/06/14 23:30:33;;;;;;;;;;;17.70;99.90;;;;;;8374058;28;19929;-76
2022/06/14 23:34:35;;;;;;;;;;;17.70;99.90;;;;;;8362587;28;19931;-75
2022/06/14 23:38:37;;;;;;;;;;;17.60;99.90;;;;;;8373141;28;20030;-75
2022/06/14 23:42:39;;;;;;;;;;;17.60;99.90;;;;;;8371856;28;19924;-75
2022/06/14 23:46:41;;;;;;;;;;;17.50;99.90;;;;;;8384554;28;19932;-76
2022/06/14 23:50:43;;;;;;;;;;;17.50;99.90;;;;;;8364585;28;19924;-75
2022/06/14 23:54:45;;;;;;;;;;;17.40;99.90;;;;;;8369695;28;19936;-76
2022/06/14 23:58:46;;;;;;;;;;;17.40;99.90;;;;;;8380461;28;20272;-76
